Time;durP1;ratioP1;P1;durP2;ratioP2;P2;SDS_P1;SDS_P2;PMS_P1;PMS_P2;Temp;Humidity;BMP_temperature;BMP_pressure;BME280_temperature;BME280_humidity;BME280_pressure;Samples;Min_cycle;Max_cycle;Signal;HPM_P1;HPM_P2
2022/04/14 00:01:35;;;;;;;14.68;8.70;;;;;;;14.94;47.24;101660.75;5039511;28;20115;-59
2022/04/14 00:04:02;;;;;;;18.73;9.25;;;;;;;14.95;47.35;101654.53;5032264;28;20045;-64
2022/04/14 00:06:29;;;;;;;14.98;9.68;;;;;;;14.91;47.27;101661.78;5032259;28;20056;-63
2022/04/14 00:08:56;;;;;;;15.23;10.15;;;;;;;14.85;47.55;101649.81;5032294;28;20081;-59
2022/04/14 00:11:22;;;;;;;17.33;10.30;;;;;;;14.84;47.58;101663.94;5032119;28;20053;-58
2022/04/14 00:13:49;;;;;;;15.23;10.02;;;;;;;14.83;47.85;101661.38;5032393;28;20068;-63
2022/04/14 00:16:16;;;;;;;13.73;10.48;;;;;;;14.79;47.83;101651.94;5031905;28;20636;-58
2022/04/14 00:18:42;;;;;;;17.17;10.55;;;;;;;14.76;48.09;101663.53;5031847;28;20072;-58
2022/04/14 00:21:09;;;;;;;13.57;9.82;;;;;;;14.73;48.29;101660.22;5031863;28;20068;-58
2022/04/14 00:23:35;;;;;;;15.82;10.43;;;;;;;14.69;48.35;101667.50;5031902;28;20054;-58
2022/04/14 00:26:02;;;;;;;16.73;10.57;;;;;;;14.62;48.63;101661.69;5032050;28;20149;-59
2022/04/14 00:28:28;;;;;;;15.23;10.23;;;;;;;14.59;48.53;101664.53;5042319;28;20468;-59
2022/04/14 00:30:55;;;;;;;14.23;10.98;;;;;;;14.54;48.59;101664.78;5052072;28;20383;-58
2022/04/14 00:33:21;;;;;;;16.10;11.07;;;;;;;14.53;48.90;101664.88;5051908;28;20583;-59
2022/04/14 00:35:48;;;;;;;14.40;11.00;;;;;;;14.52;48.89;101663.16;5051875;28;20108;-58
2022/04/14 00:38:15;;;;;;;19.23;12.20;;;;;;;14.54;48.77;101656.03;5051925;28;20481;-62
2022/04/14 00:40:41;;;;;;;17.50;11.63;;;;;;;14.51;48.60;101656.19;5051851;28;20141;-63
2022/04/14 00:43:08;;;;;;;14.40;10.85;;;;;;;14.46;48.92;101656.47;5051772;28;20124;-59
2022/04/14 00:45:34;;;;;;;14.23;10.23;;;;;;;14.44;48.84;101653.06;5046788;28;20042;-58
2022/04/14 00:48:01;;;;;;;15.63;9.75;;;;;;;14.39;49.10;101644.56;5031754;28;20548;-59
2022/04/14 00:50:28;;;;;;;15.60;10.25;;;;;;;14.34;49.30;101651.91;5031846;28;20478;-58
2022/04/14 00:52:55;;;;;;;17.23;10.45;;;;;;;14.30;49.28;101655.66;5031846;28;20080;-59
2022/04/14 00:55:21;;;;;;;14.85;10.35;;;;;;;14.25;49.46;101655.06;5031678;28;20041;-58
2022/04/14 00:57:48;;;;;;;14.02;10.15;;;;;;;14.20;49.46;101658.81;5031769;28;20085;-59
2022/04/14 01:00:15;;;;;;;15.15;9.52;;;;;;;14.17;49.62;101655.50;5032027;28;20088;-58
2022/04/14 01:02:43;;;;;;;13.23;10.18;;;;;;;14.10;49.47;101654.16;5035103;28;20055;-58
2022/04/14 01:05:10;;;;;;;13.88;10.05;;;;;;;14.02;49.70;101650.16;5035670;28;20132;-58
2022/04/14 01:07:37;;;;;;;16.20;10.10;;;;;;;13.99;49.60;101652.13;5035374;28;20046;-58
2022/04/14 01:10:04;;;;;;;15.50;9.98;;;;;;;13.94;49.94;101649.75;5035433;28;20049;-58
2022/04/14 01:12:31;;;;;;;13.38;10.20;;;;;;;13.93;49.73;101652.47;5035417;28;20562;-58
2022/04/14 01:14:58;;;;;;;14.48;9.65;;;;;;;13.91;49.60;101659.63;5035235;28;20045;-64
2022/04/14 01:17:25;;;;;;;12.10;8.80;;;;;;;13.92;49.59;101653.41;5034920;28;20049;-59
2022/04/14 01:19:51;;;;;;;10.52;8.70;;;;;;;13.92;49.71;101658.69;5034668;28;20073;-58
2022/04/14 01:22:27;;;;;;;12.73;9.13;;;;;;;13.87;49.71;101659.78;5033955;28;20069;-58
2022/04/14 01:24:56;;;;;;;14.82;9.27;;;;;;;13.88;49.61;101664.13;5035063;28;20508;-58
2022/04/14 01:27:23;;;;;;;15.88;9.48;;;;;;;13.86;49.58;101663.38;5034215;28;20101;-64
2022/04/14 01:29:51;;;;;;;11.18;9.10;;;;;;;13.80;49.72;101666.34;5035203;28;20084;-58
2022/04/14 01:32:19;;;;;;;14.55;8.52;;;;;;;13.75;49.76;101663.13;5034713;28;20046;-58
2022/04/14 01:34:46;;;;;;;15.82;8.73;;;;;;;13.68;49.90;101661.75;5034860;28;20584;-58
2022/04/14 01:37:12;;;;;;;16.05;8.70;;;;;;;13.61;49.95;101660.38;5034494;28;20049;-62
2022/04/14 01:39:39;;;;;;;12.10;8.68;;;;;;;13.57;49.99;101661.50;5034905;28;20103;-58
2022/04/14 01:42:06;;;;;;;14.05;8.52;;;;;;;13.57;49.89;101658.84;5034716;28;20096;-58
2022/04/14 01:44:33;;;;;;;13.85;8.27;;;;;;;13.61;49.80;101655.97;5034721;28;20068;-58
2022/04/14 01:46:59;;;;;;;11.60;8.10;;;;;;;13.63;49.63;101656.72;5034648;28;20053;-58
2022/04/14 01:49:26;;;;;;;11.57;8.35;;;;;;;13.63;49.70;101658.53;5034391;28;20136;-60
2022/04/14 01:51:52;;;;;;;14.65;8.68;;;;;;;13.61;49.73;101650.69;5034502;28;20069;-59
2022/04/14 01:54:19;;;;;;;12.48;8.88;;;;;;;13.60;49.64;101654.25;5034478;28;20497;-64
2022/04/14 01:56:46;;;;;;;12.15;8.13;;;;;;;13.62;49.77;101664.72;5034421;28;20096;-64
2022/04/14 01:59:13;;;;;;;10.48;8.23;;;;;;;13.60;49.82;101656.91;5034341;28;20048;-63
2022/04/14 02:01:39;;;;;;;12.65;8.32;;;;;;;13.57;49.75;101661.50;5034378;28;20088;-57
2022/04/14 02:04:07;;;;;;;15.07;8.27;;;;;;;13.55;50.06;101665.06;5034097;28;20099;-59
2022/04/14 02:06:34;;;;;;;12.23;8.35;;;;;;;13.55;49.99;101666.84;5034303;28;20048;-64
2022/04/14 02:09:01;;;;;;;16.17;8.45;;;;;;;13.54;49.90;101654.59;5034160;28;20115;-58
2022/04/14 02:11:27;;;;;;;11.63;8.52;;;;;;;13.55;49.83;101657.13;5034220;28;20069;-59
2022/04/14 02:13:54;;;;;;;13.30;8.07;;;;;;;13.55;49.88;101661.56;5033540;28;20107;-59
2022/04/14 02:16:20;;;;;;;13.25;7.93;;;;;;;13.53;49.87;101653.75;5033894;28;20458;-64
2022/04/14 02:18:47;;;;;;;12.75;9.48;;;;;;;13.51;50.11;101660.88;5032594;28;20489;-58
2022/04/14 02:21:14;;;;;;;13.85;7.95;;;;;;;13.49;50.13;101656.63;5033968;28;20046;-63
2022/04/14 02:23:41;;;;;;;12.50;8.45;;;;;;;13.44;50.17;101651.59;5034036;28;20095;-59
2022/04/14 02:26:08;;;;;;;12.55;8.18;;;;;;;13.44;50.28;101650.75;5033787;28;20053;-58
2022/04/14 02:28:34;;;;;;;9.93;7.40;;;;;;;13.39;50.29;101657.13;5042548;28;20049;-58
2022/04/14 02:31:01;;;;;;;12.70;7.97;;;;;;;13.35;50.00;101655.53;5053618;28;20076;-58
2022/04/14 02:33:27;;;;;;;14.77;8.43;;;;;;;13.30;50.14;101654.09;5053812;28;20068;-59
2022/04/14 02:35:54;;;;;;;13.48;7.55;;;;;;;13.23;49.91;101654.44;5053603;28;20072;-58
2022/04/14 02:38:20;;;;;;;15.75;8.13;;;;;;;13.18;50.01;101653.81;5053674;28;20044;-58
2022/04/14 02:40:56;;;;;;;14.13;8.48;;;;;;;13.12;50.15;101648.03;5053636;28;20049;-58
2022/04/14 02:43:23;;;;;;;13.48;8.48;;;;;;;13.05;50.25;101653.63;5053663;28;20118;-58
2022/04/14 02:46:07;;;;;;;13.27;8.70;;;;;;;13.00;50.42;101652.16;5053465;28;20405;-63
2022/04/14 02:48:34;;;;;;;13.70;8.30;;;;;;;12.96;50.43;101651.44;5053563;28;20083;-58
2022/04/14 02:51:00;;;;;;;14.38;8.07;;;;;;;12.97;50.49;101654.97;5053515;28;20410;-58
2022/04/14 02:53:27;;;;;;;16.85;9.15;;;;;;;12.94;50.50;101655.97;5052360;28;20048;-58
2022/04/14 02:55:53;;;;;;;16.33;8.40;;;;;;;12.89;50.50;101655.34;5053333;28;20048;-58
2022/04/14 02:58:20;;;;;;;13.32;8.50;;;;;;;12.81;50.71;101657.53;5053270;28;20041;-60
2022/04/14 03:00:48;;;;;;;12.80;8.13;;;;;;;12.82;50.82;101653.97;5053000;28;20079;-58
2022/04/14 03:03:14;;;;;;;19.80;8.82;;;;;;;12.80;51.06;101664.59;5049031;28;20470;-58
2022/04/14 03:05:41;;;;;;;15.02;8.68;;;;;;;12.81;51.06;101666.28;5049900;28;20460;-58
2022/04/14 03:08:08;;;;;;;13.63;8.82;;;;;;;12.74;51.22;101673.63;5040846;28;20493;-58
2022/04/14 03:10:35;;;;;;;12.82;8.02;;;;;;;12.73;51.33;101669.31;5029939;28;20104;-58
2022/04/14 03:13:01;;;;;;;11.60;7.60;;;;;;;12.71;51.38;101668.53;5030010;28;20080;-58
2022/04/14 03:15:28;;;;;;;12.32;8.15;;;;;;;12.74;51.22;101676.25;5029589;28;20506;-58
2022/04/14 03:17:55;;;;;;;13.63;7.97;;;;;;;12.73;51.36;101679.84;5029555;28;20145;-58
2022/04/14 03:20:22;;;;;;;13.43;8.43;;;;;;;12.70;51.43;101671.25;5029791;28;20081;-58
2022/04/14 03:23:04;;;;;;;12.15;7.60;;;;;;;12.71;51.47;101679.06;5031722;28;20049;-64
2022/04/14 03:25:31;;;;;;;13.10;8.52;;;;;;;12.70;51.54;101676.53;5049466;28;20045;-58
2022/04/14 03:27:57;;;;;;;14.30;8.98;;;;;;;12.65;51.76;101675.91;5049344;28;20080;-59
2022/04/14 03:30:24;;;;;;;18.13;9.18;;;;;;;12.61;51.87;101667.31;5049328;28;20080;-58
2022/04/14 03:32:50;;;;;;;16.35;8.80;;;;;;;12.62;51.93;101669.00;5049174;28;20044;-58
2022/04/14 03:35:17;;;;;;;11.32;8.02;;;;;;;12.60;52.02;101659.47;5049198;28;20131;-58
2022/04/14 03:37:44;;;;;;;14.77;9.23;;;;;;;12.59;52.08;101666.50;5049099;28;20529;-58
2022/04/14 03:40:11;;;;;;;19.63;8.88;;;;;;;12.58;52.16;101670.06;5049159;28;20049;-58
2022/04/14 03:42:38;;;;;;;18.38;8.82;;;;;;;12.49;52.24;101663.47;5049216;28;20048;-58
2022/04/14 03:45:05;;;;;;;20.35;9.43;;;;;;;12.44;52.13;101660.22;5049098;28;20053;-58
2022/04/14 03:47:32;;;;;;;15.98;9.70;;;;;;;12.41;52.25;101652.50;5049238;28;20045;-58
2022/04/14 03:49:59;;;;;;;20.20;9.02;;;;;;;12.36;52.21;101649.25;5049443;28;20049;-58
2022/04/14 03:52:26;;;;;;;27.83;9.40;;;;;;;12.35;52.17;101656.25;5034858;28;20073;-58
2022/04/14 03:54:52;;;;;;;19.08;8.10;;;;;;;12.31;52.21;101649.47;5029022;28;20501;-63
2022/04/14 03:57:19;;;;;;;19.42;9.13;;;;;;;12.28;52.22;101652.25;5028735;28;20132;-58
2022/04/14 03:59:45;;;;;;;22.27;9.70;;;;;;;12.21;52.25;101658.75;5028970;28;20110;-58
2022/04/14 04:02:12;;;;;;;16.17;8.65;;;;;;;12.19;52.18;101658.81;5028805;28;20439;-58
2022/04/14 04:04:39;;;;;;;18.10;9.20;;;;;;;12.23;52.13;101654.25;5028683;28;20054;-58
2022/04/14 04:07:06;;;;;;;18.95;9.10;;;;;;;12.24;52.07;101659.44;5028711;28;20091;-57
2022/04/14 04:09:33;;;;;;;16.30;8.70;;;;;;;12.26;52.00;101662.00;5028810;28;20478;-58
2022/04/14 04:12:00;;;;;;;20.05;9.43;;;;;;;12.26;51.97;101656.72;5029144;28;20049;-59
2022/04/14 04:14:27;;;;;;;19.27;8.68;;;;;;;12.25;52.00;101655.03;5028961;28;20057;-58
2022/04/14 04:16:59;;;;;;;21.40;8.98;;;;;;;12.25;52.05;101660.28;5028721;28;20049;-58
2022/04/14 04:19:25;;;;;;;22.25;9.50;;;;;;;12.22;52.32;101666.56;5035685;28;20061;-58
2022/04/14 04:21:52;;;;;;;20.95;9.13;;;;;;;12.18;52.59;101672.91;5048601;28;20098;-62
2022/04/14 04:24:18;;;;;;;19.67;8.88;;;;;;;12.17;52.71;101668.56;5038047;28;20557;-64
2022/04/14 04:27:03;;;;;;;14.05;8.85;;;;;;;12.16;52.83;101679.16;5029267;28;20509;-58
2022/04/14 04:29:47;;;;;;;20.23;9.23;;;;;;;12.15;52.92;101674.81;5048678;28;20571;-58
2022/04/14 04:32:14;;;;;;;19.63;9.57;;;;;;;12.13;53.02;101674.06;5042232;28;20076;-58
2022/04/14 04:34:40;;;;;;;20.90;8.90;;;;;;;12.12;53.06;101675.81;5028733;28;20508;-63
2022/04/14 04:37:07;;;;;;;21.48;10.30;;;;;;;12.12;53.36;101674.97;5031787;28;20447;-58
2022/04/14 04:39:33;;;;;;;27.60;10.50;;;;;;;12.11;53.37;101676.75;5032784;28;20077;-58
2022/04/14 04:42:00;;;;;;;29.85;11.32;;;;;;;12.06;53.57;101679.63;5047917;28;20092;-59
2022/04/14 04:44:26;;;;;;;39.47;11.65;;;;;;;12.06;53.76;101686.63;5052571;28;20045;-59
2022/04/14 04:46:53;;;;;;;28.35;12.20;;;;;;;12.04;54.01;101683.25;5044533;28;20107;-58
2022/04/14 04:49:20;;;;;;;45.20;12.32;;;;;;;12.02;54.18;101680.66;5032367;28;20052;-59
2022/04/14 04:51:46;;;;;;;37.90;10.88;;;;;;;12.02;54.36;101680.66;5046439;28;20083;-58
2022/04/14 04:54:13;;;;;;;26.65;10.85;;;;;;;12.03;54.27;101679.75;5052307;28;20072;-58
2022/04/14 04:56:39;;;;;;;25.67;11.90;;;;;;;12.04;54.42;101673.56;5052474;28;20045;-58
2022/04/14 04:59:06;;;;;;;21.55;10.40;;;;;;;12.04;54.50;101677.97;5052209;28;20077;-58
2022/04/14 05:01:33;;;;;;;20.35;10.27;;;;;;;12.04;54.55;101675.34;5051014;28;20067;-58
2022/04/14 05:03:59;;;;;;;18.90;9.70;;;;;;;12.10;54.63;101675.06;5052059;28;20409;-61
2022/04/14 05:06:26;;;;;;;20.90;10.18;;;;;;;12.15;54.42;101675.69;5051963;28;20049;-58
2022/04/14 05:08:52;;;;;;;20.17;9.88;;;;;;;12.20;54.47;101676.31;5052235;28;20079;-58
2022/04/14 05:11:19;;;;;;;19.35;10.02;;;;;;;12.27;54.35;101676.03;5052103;28;20164;-58
2022/04/14 05:13:45;;;;;;;21.10;11.00;;;;;;;12.32;54.15;101674.03;5052091;28;20095;-61
2022/04/14 05:16:12;;;;;;;14.80;9.70;;;;;;;12.35;54.18;101668.59;5051823;28;21952;-58
2022/04/14 05:18:39;;;;;;;20.55;9.68;;;;;;;12.62;53.84;101671.66;5032913;28;20456;-57
2022/04/14 05:21:05;;;;;;;21.17;10.63;;;;;;;12.54;53.98;101672.03;5036940;28;20055;-57
2022/04/14 05:23:32;;;;;;;8.43;3.22;;;;;;;13.22;53.42;101665.06;5051640;28;20053;-58
2022/04/14 05:26:05;;;;;;;19.20;10.07;;;;;;;13.31;53.67;101663.72;5051794;28;20045;-58
2022/04/14 05:28:42;;;;;;;15.80;8.00;;;;;;;13.20;54.10;101662.50;5049257;28;20041;-59
2022/04/14 05:31:14;;;;;;;21.60;10.70;;;;;;;13.23;54.21;101659.69;5049124;28;20063;-59
2022/04/14 05:33:40;;;;;;;20.10;11.98;;;;;;;13.16;54.34;101655.69;5051652;28;20712;-58
2022/04/14 05:36:07;;;;;;;19.80;11.63;;;;;;;13.14;54.42;101660.19;5035648;28;20045;-58
2022/04/14 05:38:34;;;;;;;22.00;11.32;;;;;;;13.12;54.38;101659.41;5031664;28;20096;-58
2022/04/14 05:41:01;;;;;;;25.77;11.27;;;;;;;13.16;54.28;101654.84;5034212;28;20110;-59
2022/04/14 05:43:29;;;;;;;15.90;10.02;;;;;;;13.17;54.35;101656.56;5050857;28;20060;-58
2022/04/14 05:45:57;;;;;;;21.10;10.30;;;;;;;13.20;54.33;101653.72;5050874;28;20041;-59
2022/04/14 05:48:23;;;;;;;15.10;10.43;;;;;;;13.19;54.61;101660.81;5046834;28;20593;-59
2022/04/14 05:50:50;;;;;;;20.58;10.20;;;;;;;13.15;54.85;101648.69;5051145;28;20072;-59
2022/04/14 05:53:26;;;;;;;18.23;10.38;;;;;;;13.34;54.32;101655.63;5050629;28;20088;-60
2022/04/14 05:55:54;;;;;;;18.33;9.90;;;;;;;13.43;54.29;101657.81;5050922;28;20049;-59
2022/04/14 05:58:20;;;;;;;15.50;9.48;;;;;;;13.42;54.44;101650.84;5050539;28;20067;-58
2022/04/14 06:00:47;;;;;;;16.73;9.40;;;;;;;13.42;54.50;101653.50;5050769;28;20136;-60
2022/04/14 06:03:14;;;;;;;18.02;10.02;;;;;;;13.53;54.56;101651.13;5042198;28;20409;-59
2022/04/14 06:05:41;;;;;;;18.55;10.25;;;;;;;13.62;54.55;101656.81;5031284;28;20077;-58
2022/04/14 06:08:08;;;;;;;17.88;10.05;;;;;;;13.62;55.23;101651.53;5043717;28;20114;-59
2022/04/14 06:10:35;;;;;;;16.73;9.70;;;;;;;13.70;55.27;101657.25;5050751;28;20041;-59
2022/04/14 06:13:03;;;;;;;17.50;10.27;;;;;;;13.76;55.07;101658.69;5050871;28;20045;-59
2022/04/14 06:15:31;;;;;;;19.00;10.68;;;;;;;13.98;54.72;101658.31;5049256;28;20139;-59
2022/04/14 06:17:58;;;;;;;19.25;9.90;;;;;;;14.19;54.44;101654.50;5030991;28;20061;-60
2022/04/14 06:20:25;;;;;;;17.73;11.50;;;;;;;14.26;54.79;101654.97;5029898;28;20133;-62
2022/04/14 06:22:52;;;;;;;18.48;11.88;;;;;;;14.34;54.50;101651.91;5030909;28;20734;-62
2022/04/14 06:25:22;;;;;;;19.40;12.48;;;;;;;14.52;54.26;101656.13;5030691;28;20050;-62
2022/04/14 06:27:50;;;;;;;24.35;12.05;;;;;;;14.66;53.83;101657.09;5033018;28;20045;-66
2022/04/14 06:30:19;;;;;;;19.35;12.45;;;;;;;14.83;53.48;101659.59;5050341;28;20067;-62
2022/04/14 06:32:57;;;;;;;22.73;12.38;;;;;;;14.95;53.26;101657.16;5050469;28;20059;-60
2022/04/14 06:35:24;;;;;;;18.60;11.90;;;;;;;14.97;53.08;101656.13;5050419;28;20386;-61
2022/04/14 06:37:52;;;;;;;22.33;11.75;;;;;;;15.13;52.90;101657.81;5045181;28;20049;-60
2022/04/14 06:40:20;;;;;;;23.33;11.85;;;;;;;15.22;52.79;101662.53;5030334;28;20059;-60
2022/04/14 06:43:02;;;;;;;20.55;11.45;;;;;;;15.33;52.27;101659.25;5030158;28;20096;-60
2022/04/14 06:45:31;;;;;;;21.80;13.18;;;;;;;15.35;52.27;101658.22;5030044;28;20485;-61
2022/04/14 06:47:58;;;;;;;21.50;12.95;;;;;;;15.37;52.03;101660.75;5030557;28;20045;-60
2022/04/14 06:50:26;;;;;;;24.38;12.73;;;;;;;15.40;52.19;101657.06;5050017;28;20106;-61
2022/04/14 06:52:53;;;;;;;23.45;12.98;;;;;;;15.35;52.35;101655.56;5050375;28;20044;-61
2022/04/14 06:55:23;;;;;;;21.33;13.52;;;;;;;15.33;52.47;101661.88;5036303;28;20513;-60
2022/04/14 06:57:50;;;;;;;23.08;16.58;;;;;;;15.38;52.14;101664.25;5029715;28;20100;-61
2022/04/14 07:00:18;;;;;;;20.92;14.25;;;;;;;15.57;51.83;101662.16;5029467;28;20050;-61
2022/04/14 07:02:50;;;;;;;24.67;13.88;;;;;;;15.62;51.68;101665.34;5029935;28;20817;-60
2022/04/14 07:05:17;;;;;;;19.33;12.60;;;;;;;15.77;51.35;101662.66;5029872;28;20053;-61
2022/04/14 07:07:44;;;;;;;19.52;13.93;;;;;;;15.98;51.19;101656.00;5030153;28;20545;-62
2022/04/14 07:10:12;;;;;;;24.00;13.80;;;;;;;16.08;50.83;101652.78;5030083;28;20045;-61
2022/04/14 07:12:40;;;;;;;23.25;14.77;;;;;;;16.14;50.43;101665.63;5030057;28;20075;-65
2022/04/14 07:15:08;;;;;;;20.42;12.93;;;;;;;16.34;50.24;101645.78;5046006;28;20502;-67
2022/04/14 07:17:36;;;;;;;27.70;14.65;;;;;;;16.33;50.14;101658.16;5049594;28;20057;-67
2022/04/14 07:20:04;;;;;;;20.85;13.70;;;;;;;16.55;49.84;101654.06;5047289;28;20055;-66
2022/04/14 07:22:40;;;;;;;19.48;12.95;;;;;;;16.54;49.50;101647.06;5029779;28;20056;-66
2022/04/14 07:25:07;;;;;;;21.35;12.73;;;;;;;16.68;48.96;101648.78;5029417;28;20049;-66
2022/04/14 07:27:33;;;;;;;19.90;12.85;;;;;;;16.85;48.61;101641.47;5029671;28;20057;-66
2022/04/14 07:30:00;;;;;;;17.50;11.73;;;;;;;16.97;48.52;101646.81;5029384;28;20084;-66
2022/04/14 07:32:37;;;;;;;21.58;12.90;;;;;;;17.12;48.16;101641.41;5029358;28;20132;-65
2022/04/14 07:35:04;;;;;;;21.83;11.98;;;;;;;17.19;47.93;101642.69;5029399;28;20073;-66
2022/04/14 07:37:31;;;;;;;19.48;11.73;;;;;;;17.25;47.22;101649.34;5043668;28;20052;-65
2022/04/14 07:39:59;;;;;;;21.63;12.15;;;;;;;17.36;47.19;101651.25;5049241;28;20103;-68
2022/04/14 07:42:36;;;;;;;13.95;4.65;;;;;;;17.73;46.82;101644.13;5049286;28;20048;-69
2022/04/14 07:45:05;;;;;;;19.67;8.70;;;;;;;17.94;46.74;101651.50;5048581;28;20092;-69
2022/04/14 07:47:41;;;;;;;16.27;5.40;;;;;;;18.11;46.84;101651.13;5048894;28;20507;-68
2022/04/14 07:50:19;;;;;;;16.50;9.38;;;;;;;18.28;46.97;101660.50;5048838;28;20055;-67
2022/04/14 07:52:57;;;;;;;17.67;9.02;;;;;;;18.47;46.72;101655.59;5048866;28;20055;-68
2022/04/14 07:55:32;;;;;;;18.75;8.40;;;;;;;18.55;46.46;101661.16;5049260;28;20053;-68
2022/04/14 07:58:04;;;;;;;20.00;12.13;;;;;;;18.62;45.80;101658.91;5048889;28;20830;-66
2022/04/14 08:00:31;;;;;;;23.27;12.27;;;;;;;18.67;45.46;101662.91;5049128;28;20301;-66
2022/04/14 08:03:00;;;;;;;22.95;12.23;;;;;;;18.65;45.14;101659.53;5045027;28;20077;-68
2022/04/14 08:05:39;;;;;;;19.60;12.15;;;;;;;18.79;45.18;101665.59;5043432;28;20100;-66
2022/04/14 08:08:08;;;;;;;19.85;11.18;;;;;;;18.86;44.55;101665.00;5043590;28;20045;-66
2022/04/14 08:10:35;;;;;;;13.05;6.55;;;;;;;19.03;44.48;101654.88;5047683;28;20106;-66
2022/04/14 08:13:02;;;;;;;22.63;10.63;;;;;;;19.20;44.58;101658.91;5048049;28;20041;-67
2022/04/14 08:15:30;;;;;;;22.83;12.80;;;;;;;19.32;44.33;101657.91;5047504;28;21565;-67
2022/04/14 08:17:57;;;;;;;24.30;13.38;;;;;;;19.54;43.65;101661.53;5036756;28;20842;-64
2022/04/14 08:20:25;;;;;;;40.30;14.35;;;;;;;19.69;42.92;101659.44;5047297;28;20563;-70
2022/04/14 08:22:59;;;;;;;31.67;13.70;;;;;;;19.86;42.64;101666.13;5041448;28;20456;-66
2022/04/14 08:25:35;;;;;;;23.30;13.13;;;;;;;19.95;42.24;101669.81;5045201;28;20052;-66
2022/04/14 08:28:03;;;;;;;21.00;13.37;;;;;;;20.05;42.39;101668.94;5048682;28;20053;-67
2022/04/14 08:30:32;;;;;;;24.52;13.90;;;;;;;20.22;41.99;101670.19;5042990;28;20355;-67
2022/04/14 08:33:12;;;;;;;28.38;14.70;;;;;;;20.27;41.64;101669.00;5028650;28;20443;-67
2022/04/14 08:35:39;;;;;;;24.73;13.25;;;;;;;20.42;41.61;101658.84;5028830;28;20065;-66
2022/04/14 08:38:07;;;;;;;22.15;13.27;;;;;;;20.64;41.30;101665.91;5028354;28;20049;-69
2022/04/14 08:40:39;;;;;;;21.88;13.02;;;;;;;20.83;40.81;101674.03;5028602;28;20057;-66
2022/04/14 08:43:34;;;;;;;26.58;13.90;;;;;;;21.07;40.52;101658.72;5028700;28;20064;-69
2022/04/14 08:46:02;;;;;;;24.85;13.98;;;;;;;21.29;40.12;101660.34;5029425;28;20096;-71
2022/04/14 08:48:29;;;;;;;27.52;13.68;;;;;;;21.42;39.90;101658.31;5029103;28;20049;-66
2022/04/14 08:50:57;;;;;;;24.40;13.98;;;;;;;21.47;39.76;101664.09;5028170;28;20454;-65
2022/04/14 08:53:25;;;;;;;23.65;13.07;;;;;;;21.58;39.29;101665.81;5035242;28;20072;-65
2022/04/14 08:55:52;;;;;;;21.33;13.13;;;;;;;21.59;39.29;101664.00;5031526;28;20136;-63
2022/04/14 08:58:22;;;;;;;20.23;12.63;;;;;;;21.71;39.09;101659.38;5036560;28;20091;-66
2022/04/14 09:00:49;;;;;;;24.55;13.68;;;;;;;21.99;38.31;101657.72;5038785;28;20072;-66
2022/04/14 09:03:35;;;;;;;26.75;13.02;;;;;;;22.06;38.10;101653.50;5028279;28;20046;-66
2022/04/14 09:06:02;;;;;;;23.02;13.48;;;;;;;22.01;37.62;101655.75;5033435;28;20041;-64
2022/04/14 09:08:29;;;;;;;24.48;12.82;;;;;;;22.26;37.36;101654.34;5044612;28;20053;-65
2022/04/14 09:10:55;;;;;;;24.85;12.52;;;;;;;22.48;36.64;101649.72;5047337;28;20038;-64
2022/04/14 09:13:22;;;;;;;21.95;11.70;;;;;;;22.71;36.45;101652.91;5047922;28;20053;-65
2022/04/14 09:15:49;;;;;;;24.70;12.20;;;;;;;22.98;35.68;101645.91;5034315;28;20057;-64
2022/04/14 09:18:16;;;;;;;26.60;11.85;;;;;;;23.17;35.69;101636.16;5027742;28;20059;-64
2022/04/14 09:20:48;;;;;;;24.85;12.02;;;;;;;23.36;35.07;101636.06;5027715;28;20049;-64
2022/04/14 09:23:23;;;;;;;23.92;11.85;;;;;;;23.40;34.97;101637.47;5030795;28;20053;-64
2022/04/14 09:26:02;;;;;;;22.70;10.52;;;;;;;23.41;34.70;101636.44;5031425;28;20100;-65
2022/04/14 09:28:29;;;;;;;21.17;10.55;;;;;;;23.61;33.90;101639.84;5051060;28;20092;-65
2022/04/14 09:31:10;;;;;;;25.15;11.40;;;;;;;23.64;33.47;101636.91;5047958;28;20064;-65
2022/04/14 09:33:44;;;;;;;22.83;11.40;;;;;;;23.81;33.28;101640.56;5051156;28;20045;-64
2022/04/14 09:36:22;;;;;;;22.63;12.07;;;;;;;23.92;32.87;101642.22;5050417;28;20081;-66
2022/04/14 09:38:59;;;;;;;23.77;11.27;;;;;;;23.94;32.87;101644.75;5051446;28;20057;-64
2022/04/14 09:41:27;;;;;;;24.35;11.40;;;;;;;23.98;32.58;101639.94;5051544;28;20551;-64
2022/04/14 09:43:55;;;;;;;23.33;11.38;;;;;;;24.07;32.44;101639.00;5051453;28;20041;-64
2022/04/14 09:46:22;;;;;;;21.10;10.48;;;;;;;24.15;32.18;101627.50;5036380;28;20514;-66
2022/04/14 09:49:24;;;;;;;26.48;10.75;;;;;;;24.42;31.65;101624.69;5031325;28;20052;-67
2022/04/14 09:51:53;;;;;;;19.63;9.35;;;;;;;24.64;31.15;101616.28;5009148;28;20153;-67
2022/04/14 09:54:28;;;;;;;25.48;8.90;;;;;;;24.78;30.37;101615.72;5026963;28;20093;-67
2022/04/14 09:56:56;;;;;;;18.45;8.90;;;;;;;24.96;29.59;101609.44;5031245;28;20046;-66
2022/04/14 09:59:30;;;;;;;26.40;9.38;;;;;;;24.88;29.24;101612.94;5030770;28;20103;-68
2022/04/14 10:02:10;;;;;;;24.80;10.65;;;;;;;24.91;29.36;101607.22;5030696;28;20443;-68
2022/04/14 10:04:42;;;;;;;26.75;9.50;;;;;;;24.91;29.05;101602.72;5030751;28;20056;-66
2022/04/14 10:07:14;;;;;;;22.58;9.93;;;;;;;24.96;28.96;101602.22;5030897;28;20081;-62
2022/04/14 10:09:43;;;;;;;22.02;9.13;;;;;;;25.23;28.94;101595.78;5030936;28;20045;-65
2022/04/14 10:12:15;;;;;;;20.48;9.27;;;;;;;25.38;28.60;101597.88;5044862;28;20071;-68
2022/04/14 10:14:42;;;;;;;21.00;10.15;;;;;;;25.28;28.59;101592.63;5050798;28;20088;-66
2022/04/14 10:17:10;;;;;;;23.35;9.60;;;;;;;25.39;28.15;101595.00;5050322;28;20061;-66
2022/04/14 10:19:37;;;;;;;20.70;9.15;;;;;;;25.55;28.10;101594.22;5040416;28;20093;-65
2022/04/14 10:22:06;;;;;;;28.92;10.30;;;;;;;25.64;27.78;101591.56;5030591;28;20100;-66
2022/04/14 10:24:35;;;;;;;21.88;10.15;;;;;;;25.52;27.65;101588.31;5030612;28;20107;-66
2022/04/14 10:27:03;;;;;;;18.15;8.70;;;;;;;25.41;27.48;101592.19;5030674;28;20100;-67
2022/04/14 10:29:31;;;;;;;20.17;9.20;;;;;;;25.58;27.13;101593.91;5030266;28;20502;-66
2022/04/14 10:31:58;;;;;;;19.58;8.85;;;;;;;25.66;26.85;101595.75;5030236;28;20124;-67
2022/04/14 10:34:25;;;;;;;18.48;7.60;;;;;;;25.78;26.23;101584.69;5028867;28;20091;-65
2022/04/14 10:36:52;;;;;;;14.15;7.25;;;;;;;25.87;25.96;101586.34;5030307;28;20053;-66
2022/04/14 10:39:19;;;;;;;19.60;8.45;;;;;;;25.97;25.76;101575.44;5030402;28;20053;-66
2022/04/14 10:41:50;;;;;;;24.42;8.88;;;;;;;26.08;25.74;101585.91;5030321;28;20046;-67
2022/04/14 10:44:21;;;;;;;19.52;7.85;;;;;;;26.18;25.66;101574.94;5030321;28;20050;-66
2022/04/14 10:46:52;;;;;;;19.98;7.90;;;;;;;26.35;25.25;101576.59;5030072;28;20046;-67
2022/04/14 10:49:24;;;;;;;21.65;8.57;;;;;;;26.48;25.10;101578.75;5029175;28;20222;-65
2022/04/14 10:51:53;;;;;;;21.05;8.25;;;;;;;26.48;25.16;101570.69;5030080;28;20489;-64
2022/04/14 10:54:20;;;;;;;22.48;8.77;;;;;;;26.53;25.10;101571.00;5033085;28;20072;-65
2022/04/14 10:56:49;;;;;;;18.05;6.35;;;;;;;26.63;24.53;101565.44;5049430;28;20045;-69
2022/04/14 10:59:40;;;;;;;13.13;5.78;;;;;;;26.71;24.19;101573.47;5049933;28;20049;-67
2022/04/14 11:02:07;;;;;;;14.63;5.75;;;;;;;26.89;23.54;101570.59;5046913;28;20053;-70
2022/04/14 11:04:37;;;;;;;14.10;5.75;;;;;;;27.02;23.22;101567.31;5047241;28;20076;-71
2022/04/14 11:07:16;;;;;;;19.55;7.32;;;;;;;27.02;23.24;101571.84;5049565;28;20053;-70
2022/04/14 11:09:49;;;;;;;18.38;7.45;;;;;;;26.84;23.40;101562.19;5032639;28;20107;-70
2022/04/14 11:12:35;;;;;;;20.55;8.50;;;;;;;26.94;23.35;101563.81;5029593;28;20073;-69
2022/04/14 11:15:08;;;;;;;14.85;7.13;;;;;;;27.01;23.56;101567.50;5029604;28;20501;-74
2022/04/14 11:17:37;;;;;;;18.75;8.18;;;;;;;27.03;23.80;101557.38;5029297;28;20052;-69
2022/04/14 11:20:15;;;;;;;17.02;7.90;;;;;;;27.06;23.84;101562.44;5029709;28;20045;-69
2022/04/14 11:23:12;;;;;;;19.88;7.25;;;;;;;26.95;23.99;101563.66;5029196;28;20417;-69